Time;durP1;ratioP1;P1;durP2;ratioP2;P2;SDS_P1;SDS_P2;PMS_P1;PMS_P2;Temp;Humidity;BMP_temperature;BMP_pressure;BME280_temperature;BME280_humidity;BME280_pressure;Samples;Min_cycle;Max_cycle;Signal;HPM_P1;HPM_P2
2022/01/22 00:02:00;;;;;;;;;;;6.30;99.90;;;;;;5114922;28;20438;-85
2022/01/22 00:04:27;;;;;;;;;;;6.30;99.90;;;;;;5115212;28;19962;-86
2022/01/22 00:06:55;;;;;;;;;;;6.20;99.90;;;;;;5114870;28;19951;-86
2022/01/22 00:09:25;;;;;;;;;;;6.20;99.90;;;;;;5114783;28;19927;-86
2022/01/22 00:11:53;;;;;;;;;;;6.20;99.90;;;;;;5114821;28;20381;-86
2022/01/22 00:14:26;;;;;;;;;;;6.20;99.90;;;;;;5115037;28;19923;-85
2022/01/22 00:16:54;;;;;;;;;;;6.20;99.90;;;;;;5115254;28;20381;-87
2022/01/22 00:19:21;;;;;;;;;;;6.20;99.90;;;;;;5094805;28;20279;-86
2022/01/22 00:21:48;;;;;;;;;;;6.30;99.90;;;;;;5098569;28;20370;-86
2022/01/22 00:24:14;;;;;;;;;;;6.30;99.90;;;;;;5099063;28;19924;-86
2022/01/22 00:26:43;;;;;;;;;;;6.20;99.90;;;;;;5099621;28;20056;-86
2022/01/22 00:29:10;;;;;;;;;;;6.20;99.90;;;;;;5096740;28;19924;-86
2022/01/22 00:31:37;;;;;;;;;;;6.20;99.90;;;;;;5094812;28;19928;-86
2022/01/22 00:34:04;;;;;;;;;;;6.20;99.90;;;;;;5094296;28;19931;-86
2022/01/22 00:36:30;;;;;;;;;;;6.30;99.90;;;;;;5094490;28;19924;-87
2022/01/22 00:38:57;;;;;;;;;;;6.30;99.90;;;;;;5094802;28;20051;-86
2022/01/22 00:41:24;;;;;;;;;;;6.30;99.90;;;;;;5094780;28;19923;-86
2022/01/22 00:43:53;;;;;;;;;;;6.30;99.90;;;;;;5094531;28;19978;-87
2022/01/22 00:46:20;;;;;;;;;;;6.20;99.90;;;;;;5094368;28;19924;-86
2022/01/22 00:48:47;;;;;;;;;;;6.30;99.90;;;;;;5094625;28;19969;-86
2022/01/22 00:51:14;;;;;;;;;;;6.20;99.90;;;;;;5094370;28;20022;-86
2022/01/22 00:53:41;;;;;;;;;;;6.20;99.90;;;;;;5094187;28;19924;-85
2022/01/22 00:56:07;;;;;;;;;;;5.90;99.90;;;;;;5094502;28;19982;-86
2022/01/22 00:58:34;;;;;;;;;;;6.20;99.90;;;;;;5094305;28;19966;-87
2022/01/22 01:01:02;;;;;;;;;;;6.20;99.90;;;;;;5096322;28;19935;-86
2022/01/22 01:03:32;;;;;;;;;;;6.20;99.90;;;;;;5098265;28;20293;-86
2022/01/22 01:06:00;;;;;;;;;;;6.20;99.90;;;;;;5098841;28;19931;-86
2022/01/22 01:08:28;;;;;;;;;;;6.20;99.90;;;;;;5098558;28;19977;-86
2022/01/22 01:10:55;;;;;;;;;;;6.30;99.90;;;;;;5099241;28;19928;-88
2022/01/22 01:13:24;;;;;;;;;;;6.20;99.90;;;;;;5118699;28;19976;-86
2022/01/22 01:16:02;;;;;;;;;;;6.20;99.90;;;;;;5118982;28;19924;-86
2022/01/22 01:32:33;;;;;;;;;;;6.50;99.90;;;;;;5118185;28;19930;-85
2022/01/22 01:35:06;;;;;;;;;;;6.30;99.90;;;;;;5117865;28;19928;-85
2022/01/22 01:37:32;;;;;;;;;;;6.30;99.90;;;;;;5118378;28;19924;-85
2022/01/22 01:40:03;;;;;;;;;;;6.20;99.90;;;;;;5118466;28;19977;-87
2022/01/22 01:42:36;;;;;;;;;;;6.30;99.90;;;;;;5118074;28;20298;-88
2022/01/22 01:45:04;;;;;;;;;;;6.30;99.90;;;;;;5118026;28;19930;-86
2022/01/22 01:47:31;;;;;;;;;;;6.30;99.90;;;;;;5117751;28;20365;-85
2022/01/22 01:49:58;;;;;;;;;;;6.30;99.90;;;;;;5118147;28;19924;-86
2022/01/22 01:52:34;;;;;;;;;;;6.20;99.90;;;;;;5117767;28;19923;-85
2022/01/22 01:55:05;;;;;;;;;;;6.30;99.90;;;;;;5118045;28;20010;-85
2022/01/22 01:57:38;;;;;;;;;;;6.20;99.90;;;;;;5117882;28;19967;-85
2022/01/22 02:00:06;;;;;;;;;;;6.00;99.90;;;;;;5117986;28;20006;-88
2022/01/22 02:02:34;;;;;;;;;;;6.30;99.90;;;;;;5117805;28;20374;-87
2022/01/22 02:05:01;;;;;;;;;;;6.30;99.90;;;;;;5117333;28;20437;-88
2022/01/22 02:07:29;;;;;;;;;;;6.30;99.90;;;;;;5117547;28;19977;-87
2022/01/22 02:09:58;;;;;;;;;;;6.20;99.90;;;;;;5117395;28;19927;-87
2022/01/22 02:12:44;;;;;;;;;;;6.30;99.90;;;;;;5114783;28;20373;-87
2022/01/22 02:23:35;;;;;;;;;;;6.30;99.90;;;;;;5098788;28;19981;-86
2022/01/22 02:26:02;;;;;;;;;;;6.30;99.90;;;;;;5100890;28;19957;-86
2022/01/22 02:28:29;;;;;;;;;;;6.30;99.90;;;;;;5102774;28;20023;-86
2022/01/22 02:31:04;;;;;;;;;;;6.30;99.90;;;;;;5100604;28;19932;-86
2022/01/22 02:33:36;;;;;;;;;;;6.30;99.90;;;;;;5097039;28;19924;-86
2022/01/22 02:36:13;;;;;;;;;;;6.30;99.90;;;;;;5096895;28;19932;-87
2022/01/22 02:38:48;;;;;;;;;;;6.30;99.90;;;;;;5096674;28;19924;-86
2022/01/22 02:41:18;;;;;;;;;;;6.20;99.90;;;;;;5096498;28;20311;-86
2022/01/22 02:43:46;;;;;;;;;;;6.30;99.90;;;;;;5096828;28;19928;-87
2022/01/22 02:46:15;;;;;;;;;;;6.30;99.90;;;;;;5096547;28;19979;-86
2022/01/22 02:48:41;;;;;;;;;;;6.40;99.90;;;;;;5096165;28;20392;-86
2022/01/22 02:51:08;;;;;;;;;;;6.40;99.90;;;;;;5096594;28;19970;-86
2022/01/22 02:53:35;;;;;;;;;;;6.00;99.90;;;;;;5096474;28;19963;-86
2022/01/22 02:56:03;;;;;;;;;;;6.80;99.90;;;;;;5096348;28;19924;-86
2022/01/22 02:58:30;;;;;;;;;;;6.40;99.90;;;;;;5096166;28;19931;-87
2022/01/22 03:00:57;;;;;;;;;;;6.20;99.90;;;;;;5096061;28;19970;-86
2022/01/22 03:03:24;;;;;;;;;;;6.40;99.90;;;;;;5096049;28;19979;-86
2022/01/22 03:05:50;;;;;;;;;;;6.40;99.90;;;;;;5095868;28;20301;-87
2022/01/22 03:08:19;;;;;;;;;;;6.40;99.90;;;;;;5096019;28;19928;-87
2022/01/22 03:10:50;;;;;;;;;;;6.50;99.90;;;;;;5096076;28;19924;-86
2022/01/22 03:16:10;;;;;;;;;;;6.40;99.90;;;;;;5094921;28;19924;-86
2022/01/22 03:18:48;;;;;;;;;;;6.50;99.90;;;;;;5095828;28;19931;-86
2022/01/22 03:21:30;;;;;;;;;;;6.60;99.90;;;;;;5096075;28;19924;-86
2022/01/22 03:29:35;;;;;;;;;;;6.40;99.90;;;;;;5098127;28;20057;-86
2022/01/22 03:32:02;;;;;;;;;;;6.40;99.90;;;;;;5095700;28;19924;-87
2022/01/22 03:34:30;;;;;;;;;;;6.50;99.90;;;;;;5095191;28;19924;-86
2022/01/22 03:36:56;;;;;;;;;;;6.40;99.90;;;;;;5095430;28;20370;-87
2022/01/22 03:39:23;;;;;;;;;;;6.50;99.90;;;;;;5095384;28;19928;-86
2022/01/22 03:41:52;;;;;;;;;;;6.70;99.90;;;;;;5095374;28;19975;-87
2022/01/22 03:44:19;;;;;;;;;;;6.40;99.90;;;;;;5095417;28;19931;-87
2022/01/22 03:46:47;;;;;;;;;;;6.50;99.90;;;;;;5095626;28;19924;-87
2022/01/22 03:49:16;;;;;;;;;;;6.70;99.90;;;;;;5095565;28;19992;-87
2022/01/22 03:51:43;;;;;;;;;;;6.50;99.90;;;;;;5095050;28;19926;-87
2022/01/22 03:54:09;;;;;;;;;;;6.50;99.90;;;;;;5095210;28;20320;-87
2022/01/22 03:56:38;;;;;;;;;;;6.50;99.90;;;;;;5095287;28;19927;-86
2022/01/22 03:59:05;;;;;;;;;;;6.50;99.90;;;;;;5095174;28;19969;-86
2022/01/22 04:04:30;;;;;;;;;;;6.50;99.90;;;;;;5095466;28;20031;-86
2022/01/22 04:09:44;;;;;;;;;;;6.50;99.90;;;;;;5095043;28;19989;-86
2022/01/22 04:12:13;;;;;;;;;;;6.50;99.90;;;;;;5106763;28;19931;-86
2022/01/22 04:14:46;;;;;;;;;;;6.50;99.90;;;;;;5115276;28;19924;-86
2022/01/22 04:17:23;;;;;;;;;;;6.50;99.90;;;;;;5113197;28;19966;-87
2022/01/22 04:25:32;;;;;;;;;;;6.50;99.90;;;;;;5070442;28;19928;-86
2022/01/22 04:27:59;;;;;;;;;;;6.50;99.90;;;;;;5103716;28;19927;-85
2022/01/22 04:30:27;;;;;;;;;;;6.70;99.90;;;;;;5117940;28;19969;-86
2022/01/22 04:32:54;;;;;;;;;;;6.50;99.90;;;;;;5118214;28;20305;-86
2022/01/22 04:35:23;;;;;;;;;;;6.50;99.90;;;;;;5114174;28;19974;-86
2022/01/22 04:37:50;;;;;;;;;;;6.50;99.90;;;;;;5114083;28;19930;-86
2022/01/22 04:40:17;;;;;;;;;;;6.50;99.90;;;;;;5115077;28;19971;-86
2022/01/22 04:42:44;;;;;;;;;;;6.50;99.90;;;;;;5114909;28;19977;-86
2022/01/22 04:45:19;;;;;;;;;;;6.50;99.90;;;;;;5114877;28;19946;-87
2022/01/22 04:47:53;;;;;;;;;;;6.50;99.90;;;;;;5114963;28;19931;-86
2022/01/22 04:55:50;;;;;;;;;;;6.50;99.90;;;;;;5114712;28;19989;-87
2022/01/22 04:58:17;;;;;;;;;;;6.50;99.90;;;;;;5106921;28;19928;-86
2022/01/22 05:00:45;;;;;;;;;;;6.50;99.90;;;;;;5114150;28;19924;-86
2022/01/22 05:03:11;;;;;;;;;;;6.80;99.90;;;;;;5114787;28;19934;-85
2022/01/22 05:05:40;;;;;;;;;;;6.50;99.90;;;;;;5114742;28;20354;-86
2022/01/22 05:08:06;;;;;;;;;;;6.50;99.90;;;;;;5114715;28;19963;-86
2022/01/22 05:10:33;;;;;;;;;;;6.50;99.90;;;;;;5114616;28;20002;-86
2022/01/22 05:13:00;;;;;;;;;;;6.50;99.90;;;;;;5114486;28;19924;-86
2022/01/22 05:15:27;;;;;;;;;;;6.30;99.90;;;;;;5114188;28;19924;-85
2022/01/22 05:17:53;;;;;;;;;;;6.50;99.90;;;;;;5114672;28;19923;-86
2022/01/22 05:20:24;;;;;;;;;;;6.50;99.90;;;;;;5114304;28;20377;-86
2022/01/22 05:22:58;;;;;;;;;;;6.50;99.90;;;;;;5114543;28;19930;-86
2022/01/22 05:25:31;;;;;;;;;;;5.80;99.90;;;;;;5114639;28;19923;-86
2022/01/22 05:39:00;;;;;;;;;;;6.40;99.90;;;;;;5114068;28;19945;-87
2022/01/22 05:41:27;;;;;;;;;;;6.60;99.90;;;;;;5113927;28;20373;-86
2022/01/22 05:43:53;;;;;;;;;;;6.60;99.90;;;;;;5114003;28;19985;-86
2022/01/22 05:46:20;;;;;;;;;;;6.50;99.90;;;;;;5114836;28;19924;-86
2022/01/22 05:48:47;;;;;;;;;;;6.50;99.90;;;;;;5117535;28;20446;-86
2022/01/22 05:51:15;;;;;;;;;;;6.60;99.90;;;;;;5117881;28;19928;-86
2022/01/22 05:53:54;;;;;;;;;;;6.60;99.90;;;;;;5117840;28;19973;-86
2022/01/22 06:01:50;;;;;;;;;;;6.60;99.90;;;;;;5117338;28;19930;-86
2022/01/22 06:04:17;;;;;;;;;;;6.60;99.90;;;;;;5117361;28;20385;-86
2022/01/22 06:06:44;;;;;;;;;;;6.70;99.90;;;;;;5117465;28;19923;-87
2022/01/22 06:09:10;;;;;;;;;;;6.70;99.90;;;;;;5117462;28;19963;-86
2022/01/22 06:11:52;;;;;;;;;;;6.70;99.90;;;;;;5117362;28;20042;-86
2022/01/22 06:14:19;;;;;;;;;;;6.80;99.90;;;;;;5117321;28;19935;-85
2022/01/22 06:16:46;;;;;;;;;;;6.70;99.90;;;;;;5116887;28;19931;-85
2022/01/22 06:19:14;;;;;;;;;;;6.80;99.90;;;;;;5116876;28;19923;-87
2022/01/22 06:21:41;;;;;;;;;;;6.70;99.90;;;;;;5116702;28;20332;-86
2022/01/22 06:24:07;;;;;;;;;;;6.80;99.90;;;;;;5116807;28;19971;-86
2022/01/22 06:26:35;;;;;;;;;;;6.70;99.90;;;;;;5101583;28;19975;-86
2022/01/22 06:29:03;;;;;;;;;;;6.70;99.90;;;;;;5097629;28;19928;-85
2022/01/22 06:31:30;;;;;;;;;;;6.70;99.90;;;;;;5100109;28;20036;-85
2022/01/22 06:33:58;;;;;;;;;;;6.70;99.90;;;;;;5099258;28;19924;-87
2022/01/22 06:36:25;;;;;;;;;;;6.70;99.90;;;;;;5099139;28;19924;-86
2022/01/22 06:38:56;;;;;;;;;;;6.70;99.90;;;;;;5096554;28;19978;-86
2022/01/22 06:44:09;;;;;;;;;;;6.80;99.90;;;;;;5096005;28;20286;-85
2022/01/22 06:46:35;;;;;;;;;;;6.80;99.90;;;;;;5095953;28;19970;-86
2022/01/22 06:49:02;;;;;;;;;;;6.90;99.90;;;;;;5095821;28;20370;-86
2022/01/22 06:51:29;;;;;;;;;;;6.80;99.90;;;;;;5095809;28;20244;-86
2022/01/22 06:53:56;;;;;;;;;;;6.80;99.90;;;;;;5095588;28;20427;-86
2022/01/22 06:56:24;;;;;;;;;;;6.80;99.90;;;;;;5095931;28;19924;-85
2022/01/22 06:58:51;;;;;;;;;;;6.80;99.90;;;;;;5094633;28;19924;-87
2022/01/22 07:01:19;;;;;;;;;;;6.80;99.90;;;;;;5095342;28;20370;-86
2022/01/22 07:03:46;;;;;;;;;;;6.80;99.90;;;;;;5095685;28;20348;-86
2022/01/22 07:06:13;;;;;;;;;;;6.80;99.90;;;;;;5100936;28;19923;-85
2022/01/22 07:08:39;;;;;;;;;;;6.80;99.90;;;;;;5115661;28;20413;-86
2022/01/22 07:11:07;;;;;;;;;;;7.00;99.90;;;;;;5115719;28;19966;-86
2022/01/22 07:13:33;;;;;;;;;;;6.80;99.90;;;;;;5115954;28;19959;-86
2022/01/22 07:16:00;;;;;;;;;;;6.80;99.90;;;;;;5115810;28;20024;-86
2022/01/22 07:18:29;;;;;;;;;;;6.80;99.90;;;;;;5115542;28;19930;-86
2022/01/22 07:20:56;;;;;;;;;;;6.80;99.90;;;;;;5115571;28;19924;-86
2022/01/22 07:23:54;;;;;;;;;;;6.80;99.90;;;;;;5116133;28;20400;-85
2022/01/22 07:26:18;;;;;;;;;;;6.80;99.90;;;;;;5115822;28;19923;-86
2022/01/22 07:28:45;;;;;;;;;;;6.80;99.90;;;;;;5116207;28;19924;-85
2022/01/22 07:31:12;;;;;;;;;;;6.80;99.90;;;;;;5116179;28;19971;-86
2022/01/22 07:33:40;;;;;;;;;;;6.80;99.90;;;;;;5116108;28;19927;-86
2022/01/22 07:36:07;;;;;;;;;;;6.80;99.90;;;;;;5116036;28;19967;-86
2022/01/22 07:38:37;;;;;;;;;;;6.80;99.90;;;;;;5115621;28;19923;-86
2022/01/22 07:41:04;;;;;;;;;;;6.90;99.90;;;;;;5116288;28;19923;-87
2022/01/22 07:43:31;;;;;;;;;;;6.80;99.90;;;;;;5115913;28;19923;-86
2022/01/22 07:45:58;;;;;;;;;;;6.80;99.90;;;;;;5115544;28;19969;-86
2022/01/22 07:48:24;;;;;;;;;;;6.80;99.90;;;;;;5115798;28;19924;-86
2022/01/22 07:50:52;;;;;;;;;;;6.50;99.90;;;;;;5115851;28;20056;-86
2022/01/22 07:53:19;;;;;;;;;;;6.80;99.90;;;;;;5115769;28;19923;-87
2022/01/22 07:55:46;;;;;;;;;;;6.80;99.90;;;;;;5116619;28;19946;-87
2022/01/22 07:58:14;;;;;;;;;;;6.80;99.90;;;;;;5115650;28;19977;-87
2022/01/22 08:00:41;;;;;;;;;;;6.80;99.90;;;;;;5115326;28;19946;-87
2022/01/22 08:03:08;;;;;;;;;;;6.80;99.90;;;;;;5115382;28;19928;-86
2022/01/22 08:05:35;;;;;;;;;;;6.80;99.90;;;;;;5116022;28;19924;-87
2022/01/22 08:08:04;;;;;;;;;;;6.90;99.90;;;;;;5115662;28;19976;-87
2022/01/22 08:10:31;;;;;;;;;;;6.80;99.90;;;;;;5115806;28;19971;-87
2022/01/22 08:12:57;;;;;;;;;;;5.80;99.90;;;;;;5115226;28;19924;-87
2022/01/22 08:15:24;;;;;;;;;;;6.80;99.90;;;;;;5115000;28;19975;-87
2022/01/22 08:17:51;;;;;;;;;;;6.80;99.90;;;;;;5113632;28;19977;-86
2022/01/22 08:20:20;;;;;;;;;;;6.80;99.90;;;;;;5113599;28;19969;-86
2022/01/22 08:22:47;;;;;;;;;;;6.80;99.90;;;;;;5115401;28;20328;-86
2022/01/22 08:25:16;;;;;;;;;;;6.90;99.90;;;;;;5115331;28;20331;-87
2022/01/22 08:28:52;;;;;;;;;;;6.90;99.90;;;;;;5114750;28;19932;-87
2022/01/22 08:30:29;;;;;;;;;;;6.90;99.90;;;;;;5115158;28;20414;-86
2022/01/22 08:33:08;;;;;;;;;;;6.90;99.90;;;;;;5115108;28;20373;-87
2022/01/22 08:35:53;;;;;;;;;;;7.00;99.90;;;;;;5117271;28;19973;-86
2022/01/22 08:38:20;;;;;;;;;;;7.20;99.90;;;;;;5116754;28;20281;-86
2022/01/22 08:40:48;;;;;;;;;;;7.00;99.90;;;;;;5118006;28;20292;-87
2022/01/22 08:43:14;;;;;;;;;;;7.00;99.90;;;;;;5115153;28;19969;-86
2022/01/22 08:45:41;;;;;;;;;;;7.10;99.90;;;;;;5114583;28;20282;-87
2022/01/22 08:48:08;;;;;;;;;;;7.10;99.90;;;;;;5114706;28;19963;-86
2022/01/22 08:50:35;;;;;;;;;;;7.10;99.90;;;;;;5114457;28;20023;-85
2022/01/22 08:53:02;;;;;;;;;;;7.10;99.90;;;;;;5114713;28;20341;-87
2022/01/22 08:55:29;;;;;;;;;;;7.10;99.90;;;;;;5114276;28;20373;-86
2022/01/22 08:57:57;;;;;;;;;;;7.20;99.90;;;;;;5114317;28;19924;-86
2022/01/22 09:00:24;;;;;;;;;;;7.20;99.90;;;;;;5114683;28;20327;-86
2022/01/22 09:02:51;;;;;;;;;;;7.20;99.90;;;;;;5116668;28;19944;-86
2022/01/22 09:05:19;;;;;;;;;;;7.00;99.90;;;;;;5114863;28;19943;-86
2022/01/22 09:07:46;;;;;;;;;;;7.20;99.90;;;;;;5114204;28;19924;-88
2022/01/22 09:10:15;;;;;;;;;;;7.30;99.90;;;;;;5114626;28;20323;-86
2022/01/22 09:12:41;;;;;;;;;;;7.30;99.90;;;;;;5114248;28;19924;-86
2022/01/22 09:15:10;;;;;;;;;;;7.20;99.90;;;;;;5113939;28;19923;-85
2022/01/22 09:17:37;;;;;;;;;;;7.30;99.90;;;;;;5114145;28;19962;-86
2022/01/22 09:20:09;;;;;;;;;;;7.30;99.90;;;;;;5114448;28;19978;-86
2022/01/22 09:22:36;;;;;;;;;;;7.30;99.90;;;;;;5117339;28;20358;-88
2022/01/22 09:25:03;;;;;;;;;;;7.40;99.90;;;;;;5118895;28;19924;-86
2022/01/22 09:27:29;;;;;;;;;;;7.40;99.90;;;;;;5120405;28;19976;-86
2022/01/22 09:29:56;;;;;;;;;;;7.40;99.90;;;;;;5117946;28;20039;-86
2022/01/22 09:32:24;;;;;;;;;;;7.40;99.90;;;;;;5118510;28;19924;-86
2022/01/22 09:34:53;;;;;;;;;;;7.30;99.90;;;;;;5118157;28;19951;-86
2022/01/22 09:37:20;;;;;;;;;;;7.40;99.90;;;;;;5118106;28;19969;-86
2022/01/22 09:39:47;;;;;;;;;;;7.40;99.90;;;;;;5118462;28;19947;-86
2022/01/22 09:42:15;;;;;;;;;;;7.40;99.90;;;;;;5117755;28;19978;-86
2022/01/22 09:44:43;;;;;;;;;;;7.50;99.90;;;;;;5118954;28;19967;-84
2022/01/22 09:47:11;;;;;;;;;;;7.50;99.90;;;;;;5118842;28;20370;-87
2022/01/22 09:49:39;;;;;;;;;;;7.50;99.90;;;;;;5118080;28;19923;-86
2022/01/22 09:52:08;;;;;;;;;;;7.70;99.90;;;;;;5117886;28;19931;-86
2022/01/22 09:54:35;;;;;;;;;;;7.60;99.90;;;;;;5118047;28;20010;-86
2022/01/22 09:57:04;;;;;;;;;;;7.70;99.90;;;;;;5118022;28;19927;-85
2022/01/22 09:59:30;;;;;;;;;;;7.60;99.90;;;;;;5117618;28;20037;-85
2022/01/22 10:02:07;;;;;;;;;;;7.60;99.90;;;;;;5117692;28;19973;-85
2022/01/22 10:04:37;;;;;;;;;;;7.50;99.90;;;;;;5118569;28;19924;-85
2022/01/22 10:07:05;;;;;;;;;;;7.70;99.90;;;;;;5117636;28;19959;-85
2022/01/22 10:09:46;;;;;;;;;;;7.80;99.90;;;;;;5117285;28;19928;-86
2022/01/22 10:12:17;;;;;;;;;;;7.70;99.90;;;;;;5117612;28;19923;-87
2022/01/22 10:15:06;;;;;;;;;;;7.70;99.90;;;;;;5118042;28;19924;-87
2022/01/22 10:17:40;;;;;;;;;;;7.80;99.90;;;;;;5109473;28;19931;-87
2022/01/22 10:20:26;;;;;;;;;;;7.80;99.90;;;;;;5117260;28;20369;-87
2022/01/22 10:23:01;;;;;;;;;;;7.90;99.90;;;;;;5117100;28;20294;-87
2022/01/22 10:25:32;;;;;;;;;;;8.00;99.90;;;;;;5118983;28;19924;-86
2022/01/22 10:28:00;;;;;;;;;;;7.80;99.90;;;;;;5117390;28;19924;-86
2022/01/22 10:30:34;;;;;;;;;;;7.90;99.90;;;;;;5116919;28;20377;-84
2022/01/22 10:33:18;;;;;;;;;;;7.90;99.90;;;;;;5116933;28;19983;-86
2022/01/22 10:35:45;;;;;;;;;;;8.30;99.90;;;;;;5118147;28;20419;-85
2022/01/22 10:38:15;;;;;;;;;;;7.90;99.90;;;;;;5119476;28;20412;-86
2022/01/22 10:40:42;;;;;;;;;;;8.00;99.90;;;;;;5119368;28;19924;-86
2022/01/22 10:43:15;;;;;;;;;;;8.00;99.90;;;;;;5118998;28;19931;-86
2022/01/22 10:45:42;;;;;;;;;;;7.90;99.90;;;;;;5118634;28;19975;-86
2022/01/22 10:48:16;;;;;;;;;;;7.90;99.90;;;;;;5117683;28;20297;-85
2022/01/22 10:50:44;;;;;;;;;;;7.90;99.90;;;;;;5117367;28;19928;-85
2022/01/22 10:53:11;;;;;;;;;;;7.90;99.90;;;;;;5118988;28;19933;-86
2022/01/22 10:55:52;;;;;;;;;;;7.90;99.90;;;;;;5118855;28;20435;-86
2022/01/22 10:58:21;;;;;;;;;;;7.90;99.90;;;;;;5118078;27;19970;-86
2022/01/22 11:00:58;;;;;;;;;;;7.80;99.90;;;;;;5116602;28;19932;-86
2022/01/22 11:03:26;;;;;;;;;;;7.80;99.90;;;;;;5117283;28;19962;-85
2022/01/22 11:05:55;;;;;;;;;;;7.90;99.90;;;;;;5116293;28;19928;-86
2022/01/22 11:08:22;;;;;;;;;;;7.90;99.90;;;;;;5116993;28;19997;-85
2022/01/22 11:10:49;;;;;;;;;;;7.90;99.90;;;;;;5117485;28;19923;-85
2022/01/22 11:13:16;;;;;;;;;;;7.80;99.90;;;;;;5116746;28;19931;-86
2022/01/22 11:15:45;;;;;;;;;;;7.90;99.90;;;;;;5116498;28;20365;-87
2022/01/22 11:18:12;;;;;;;;;;;8.00;99.90;;;;;;5118814;28;19931;-85
2022/01/22 11:20:42;;;;;;;;;;;8.00;99.90;;;;;;5115933;28;19924;-85
2022/01/22 11:23:10;;;;;;;;;;;8.00;99.90;;;;;;5116821;28;19977;-85
2022/01/22 11:25:38;;;;;;;;;;;8.00;99.90;;;;;;5115929;28;19977;-86
2022/01/22 11:28:05;;;;;;;;;;;8.00;99.90;;;;;;5116000;28;19927;-87
2022/01/22 11:30:32;;;;;;;;;;;8.00;99.90;;;;;;5118160;28;19945;-87
2022/01/22 11:33:01;;;;;;;;;;;8.10;99.90;;;;;;5117058;28;20377;-86
2022/01/22 11:35:33;;;;;;;;;;;8.00;99.90;;;;;;5115769;28;20016;-86
2022/01/22 11:38:05;;;;;;;;;;;8.10;99.90;;;;;;5115697;28;19930;-86
2022/01/22 11:40:33;;;;;;;;;;;8.10;99.90;;;;;;5115328;28;19928;-86
2022/01/22 11:43:05;;;;;;;;;;;8.00;99.90;;;;;;5116466;28;19931;-86
2022/01/22 11:45:33;;;;;;;;;;;8.10;99.90;;;;;;5115113;28;19924;-86
2022/01/22 11:48:11;;;;;;;;;;;8.10;99.90;;;;;;5115655;28;19992;-86
2022/01/22 11:50:38;;;;;;;;;;;8.10;99.90;;;;;;5117254;28;19946;-86
2022/01/22 11:53:24;;;;;;;;;;;8.10;99.90;;;;;;5115829;28;19930;-85
2022/01/22 11:56:28;;;;;;;;;;;8.10;99.90;;;;;;5115895;28;20327;-86
2022/01/22 11:59:09;;;;;;;;;;;6.50;99.90;;;;;;5053399;28;19984;-86
2022/01/22 12:01:52;;;;;;;;;;;8.10;99.90;;;;;;5109053;28;19968;-86
2022/01/22 12:04:21;;;;;;;;;;;8.20;99.90;;;;;;5116150;28;19924;-86
2022/01/22 12:07:03;;;;;;;;;;;8.20;99.90;;;;;;5115214;28;19927;-87
2022/01/22 12:09:31;;;;;;;;;;;8.20;99.90;;;;;;5114266;28;19924;-85
2022/01/22 12:14:54;;;;;;;;;;;9.10;99.90;;;;;;5114834;28;19935;-85
2022/01/22 12:17:41;;;;;;;;;;;8.40;99.90;;;;;;5115141;28;20010;-86
2022/01/22 12:20:40;;;;;;;;;;;8.20;99.90;;;;;;5109048;28;20438;-86
2022/01/22 12:23:07;;;;;;;;;;;8.30;99.90;;;;;;5095814;28;19924;-86
2022/01/22 12:25:50;;;;;;;;;;;8.20;99.90;;;;;;5094547;28;19951;-85
2022/01/22 12:28:32;;;;;;;;;;;8.30;99.90;;;;;;5094543;28;20396;-86
2022/01/22 12:31:01;;;;;;;;;;;8.30;99.90;;;;;;5094225;28;19924;-86
2022/01/22 12:33:43;;;;;;;;;;;8.40;99.90;;;;;;5094421;28;19976;-85
2022/01/22 12:36:17;;;;;;;;;;;8.40;99.90;;;;;;5094364;28;19924;-86
2022/01/22 12:38:47;;;;;;;;;;;8.50;99.90;;;;;;5096087;28;19934;-86
2022/01/22 12:41:28;;;;;;;;;;;8.50;99.90;;;;;;5097679;28;20015;-86
2022/01/22 12:44:02;;;;;;;;;;;8.50;99.90;;;;;;5097420;28;19932;-86
2022/01/22 12:46:29;;;;;;;;;;;8.40;99.90;;;;;;5095322;28;19974;-86
2022/01/22 12:48:57;;;;;;;;;;;8.30;99.90;;;;;;5094878;28;19924;-85
2022/01/22 12:51:27;;;;;;;;;;;8.30;99.90;;;;;;5094727;28;19932;-85
2022/01/22 12:53:54;;;;;;;;;;;8.30;99.90;;;;;;5094062;28;19928;-86
2022/01/22 12:56:51;;;;;;;;;;;7.80;99.90;;;;;;5095673;28;19924;-85
2022/01/22 12:59:18;;;;;;;;;;;8.20;99.90;;;;;;5098191;28;20352;-86
2022/01/22 13:01:45;;;;;;;;;;;8.30;99.90;;;;;;5097741;28;19927;-86
2022/01/22 13:04:12;;;;;;;;;;;8.30;99.90;;;;;;5098038;28;20056;-85
2022/01/22 13:06:42;;;;;;;;;;;8.30;99.90;;;;;;5107090;28;19924;-85
2022/01/22 13:09:11;;;;;;;;;;;8.30;99.90;;;;;;5119558;28;20404;-87
2022/01/22 13:11:45;;;;;;;;;;;8.30;99.90;;;;;;5118984;28;20010;-86
2022/01/22 13:14:12;;;;;;;;;;;8.30;99.90;;;;;;5118179;28;20010;-86
2022/01/22 13:16:46;;;;;;;;;;;8.30;99.90;;;;;;5118503;28;19977;-86
2022/01/22 13:19:12;;;;;;;;;;;8.30;99.90;;;;;;5118959;28;19928;-87
2022/01/22 13:21:48;;;;;;;;;;;8.30;99.90;;;;;;5121560;28;19928;-87
2022/01/22 13:24:14;;;;;;;;;;;8.30;99.90;;;;;;5118493;28;19973;-87
2022/01/22 13:26:43;;;;;;;;;;;8.30;99.90;;;;;;5119110;28;19946;-85
2022/01/22 13:29:16;;;;;;;;;;;8.30;99.90;;;;;;5118133;28;19969;-86
2022/01/22 13:31:55;;;;;;;;;;;8.30;99.90;;;;;;5121037;28;19928;-85
2022/01/22 13:34:32;;;;;;;;;;;8.40;99.90;;;;;;5120283;28;19924;-85
2022/01/22 13:37:40;;;;;;;;;;;8.40;99.90;;;;;;5117968;28;19971;-86
2022/01/22 13:40:24;;;;;;;;;;;8.00;99.90;;;;;;5117535;28;20038;-87
2022/01/22 13:48:34;;;;;;;;;;;8.50;99.90;;;;;;5118182;28;19930;-85
2022/01/22 13:51:02;;;;;;;;;;;8.50;99.90;;;;;;5117806;28;20302;-85
2022/01/22 13:53:31;;;;;;;;;;;8.40;99.90;;;;;;5119080;28;19924;-86
2022/01/22 13:55:58;;;;;;;;;;;8.50;99.90;;;;;;5118488;28;20301;-87
2022/01/22 13:58:25;;;;;;;;;;;8.60;99.90;;;;;;5118361;28;19959;-86
2022/01/22 14:00:52;;;;;;;;;;;8.40;99.90;;;;;;5117903;28;20450;-85
2022/01/22 14:03:37;;;;;;;;;;;8.40;99.90;;;;;;5117245;28;19924;-86
2022/01/22 14:06:04;;;;;;;;;;;8.40;99.90;;;;;;5117580;28;19924;-85
2022/01/22 14:08:34;;;;;;;;;;;8.40;99.90;;;;;;5117223;28;19923;-89
2022/01/22 14:11:05;;;;;;;;;;;8.30;99.90;;;;;;5113449;28;19984;-86
2022/01/22 14:13:32;;;;;;;;;;;8.30;99.90;;;;;;5096406;28;19928;-85
2022/01/22 14:16:10;;;;;;;;;;;8.30;99.90;;;;;;5097062;28;20329;-86
2022/01/22 14:18:39;;;;;;;;;;;8.30;99.90;;;;;;5097349;28;19925;-86
2022/01/22 14:21:08;;;;;;;;;;;8.10;99.90;;;;;;5096360;28;20353;-88
2022/01/22 14:23:38;;;;;;;;;;;8.20;99.90;;;;;;5097080;28;19924;-87
2022/01/22 14:26:09;;;;;;;;;;;8.00;99.90;;;;;;5096945;28;20331;-87
2022/01/22 14:28:40;;;;;;;;;;;7.30;99.90;;;;;;5096920;28;19946;-87
2022/01/22 14:31:20;;;;;;;;;;;7.90;99.90;;;;;;5097292;28;19924;-87
2022/01/22 14:33:47;;;;;;;;;;;7.90;99.90;;;;;;5097366;28;19924;-87
2022/01/22 14:36:15;;;;;;;;;;;7.90;99.90;;;;;;5098457;28;19928;-87
2022/01/22 14:38:48;;;;;;;;;;;7.90;99.90;;;;;;5099417;28;19946;-86
2022/01/22 14:44:28;;;;;;;;;;;7.90;99.90;;;;;;5101197;28;19977;-84
2022/01/22 14:46:58;;;;;;;;;;;8.00;99.90;;;;;;5097642;28;19923;-85
2022/01/22 14:49:26;;;;;;;;;;;7.90;99.90;;;;;;5081813;28;20375;-86
2022/01/22 14:51:53;;;;;;;;;;;7.90;99.90;;;;;;5085717;28;20377;-87
2022/01/22 14:54:22;;;;;;;;;;;7.80;99.90;;;;;;5080792;28;19931;-84
2022/01/22 14:56:49;;;;;;;;;;;7.70;99.90;;;;;;5085160;28;20527;-84
2022/01/22 14:59:16;;;;;;;;;;;7.10;99.90;;;;;;5086472;28;20550;-85
2022/01/22 15:01:43;;;;;;;;;;;7.70;99.90;;;;;;5107402;28;19924;-85
2022/01/22 15:04:10;;;;;;;;;;;7.70;99.90;;;;;;5116406;28;19924;-84
2022/01/22 15:06:37;;;;;;;;;;;7.50;99.90;;;;;;5115821;28;20331;-86
2022/01/22 15:09:05;;;;;;;;;;;7.80;99.90;;;;;;5115428;28;19924;-86
2022/01/22 15:11:34;;;;;;;;;;;7.80;99.90;;;;;;5115563;28;19963;-86
2022/01/22 15:14:02;;;;;;;;;;;7.80;99.90;;;;;;5114890;28;20010;-86
2022/01/22 15:16:36;;;;;;;;;;;7.80;99.90;;;;;;5115379;28;20023;-85
2022/01/22 15:19:04;;;;;;;;;;;7.80;99.90;;;;;;5114892;28;19934;-86
2022/01/22 15:21:33;;;;;;;;;;;7.80;99.90;;;;;;5115056;28;20356;-84
2022/01/22 15:24:01;;;;;;;;;;;7.80;99.90;;;;;;5114559;28;20348;-84
2022/01/22 15:26:30;;;;;;;;;;;7.90;99.90;;;;;;5114451;28;20022;-85
2022/01/22 15:28:59;;;;;;;;;;;7.80;99.90;;;;;;5114472;28;19924;-84
2022/01/22 15:31:32;;;;;;;;;;;7.90;99.90;;;;;;5114585;28;20412;-84
2022/01/22 15:34:12;;;;;;;;;;;7.90;99.90;;;;;;5114659;28;19924;-86
2022/01/22 15:36:40;;;;;;;;;;;7.90;99.90;;;;;;5115205;28;19928;-84
2022/01/22 15:39:08;;;;;;;;;;;7.80;99.90;;;;;;5115071;28;19986;-84
2022/01/22 15:41:37;;;;;;;;;;;7.90;99.90;;;;;;5113775;28;19927;-85
2022/01/22 15:44:08;;;;;;;;;;;7.80;99.90;;;;;;5097796;28;19924;-84
2022/01/22 15:46:37;;;;;;;;;;;7.90;99.90;;;;;;5109348;28;20484;-85
2022/01/22 15:49:04;;;;;;;;;;;7.80;99.90;;;;;;5115298;28;19924;-85
2022/01/22 15:51:32;;;;;;;;;;;7.80;99.90;;;;;;5116024;28;20377;-85
2022/01/22 15:53:58;;;;;;;;;;;7.80;99.90;;;;;;5115921;28;20353;-85
2022/01/22 15:56:25;;;;;;;;;;;7.80;99.90;;;;;;5114525;28;19992;-85
2022/01/22 15:58:52;;;;;;;;;;;7.80;99.90;;;;;;5115755;28;19924;-85
2022/01/22 16:01:20;;;;;;;;;;;7.80;99.90;;;;;;5114884;28;19989;-85
2022/01/22 16:03:54;;;;;;;;;;;7.80;99.90;;;;;;5117939;28;19931;-85
2022/01/22 16:06:22;;;;;;;;;;;7.80;99.90;;;;;;5115109;28;19924;-85